Time;durP1;ratioP1;P1;durP2;ratioP2;P2;SDS_P1;SDS_P2;PMS_P1;PMS_P2;Temp;Humidity;BMP_temperature;BMP_pressure;BME280_temperature;BME280_humidity;BME280_pressure;Samples;Min_cycle;Max_cycle;Signal;HPM_P1;HPM_P2
2022/10/10 00:02:25;;;;;;;;;;;15.10;99.90;;;;;;5069568;28;19926;-87
2022/10/10 00:04:51;;;;;;;;;;;15.20;99.90;;;;;;5073085;28;20430;-86
2022/10/10 00:07:18;;;;;;;;;;;15.10;99.90;;;;;;5079105;28;19920;-86
2022/10/10 00:09:44;;;;;;;;;;;15.30;99.90;;;;;;5087213;28;19942;-86
2022/10/10 00:12:09;;;;;;;;;;;15.20;99.90;;;;;;5076232;28;19920;-86
2022/10/10 00:14:35;;;;;;;;;;;15.10;99.90;;;;;;5086611;28;20343;-86
2022/10/10 00:17:01;;;;;;;;;;;15.00;99.90;;;;;;5077287;28;20004;-86
2022/10/10 00:19:26;;;;;;;;;;;15.00;99.90;;;;;;5086205;28;19920;-89
2022/10/10 00:21:52;;;;;;;;;;;14.90;99.90;;;;;;5081978;28;19916;-88
2022/10/10 00:24:17;;;;;;;;;;;15.00;99.90;;;;;;5088341;28;19919;-87
2022/10/10 00:26:43;;;;;;;;;;;14.90;99.90;;;;;;5071772;28;19950;-89
2022/10/10 00:29:08;;;;;;;;;;;14.80;99.90;;;;;;5079469;28;19916;-88
2022/10/10 00:31:34;;;;;;;;;;;14.70;99.90;;;;;;5084198;28;19916;-88
2022/10/10 00:34:00;;;;;;;;;;;14.70;99.90;;;;;;5079221;28;20355;-88
2022/10/10 00:36:25;;;;;;;;;;;14.70;99.90;;;;;;5078999;28;19921;-90
2022/10/10 00:38:51;;;;;;;;;;;14.60;99.90;;;;;;5081484;28;19951;-88
2022/10/10 00:41:16;;;;;;;;;;;14.70;99.90;;;;;;5084893;28;19916;-88
2022/10/10 00:43:42;;;;;;;;;;;14.50;99.90;;;;;;5075407;28;19923;-88
2022/10/10 00:46:08;;;;;;;;;;;14.50;99.90;;;;;;5074234;28;19919;-89
2022/10/10 00:48:39;;;;;;;;;;;14.50;99.90;;;;;;5071777;28;19912;-88
2022/10/10 00:51:10;;;;;;;;;;;14.50;99.90;;;;;;5075689;28;19920;-87
2022/10/10 00:53:41;;;;;;;;;;;14.50;99.90;;;;;;5071114;28;19916;-88
2022/10/10 00:56:08;;;;;;;;;;;14.50;99.90;;;;;;5070163;28;20045;-88
2022/10/10 00:58:34;;;;;;;;;;;14.50;99.90;;;;;;5082822;28;20360;-87
2022/10/10 01:01:00;;;;;;;;;;;14.40;99.90;;;;;;5076053;28;19939;-84
2022/10/10 01:03:26;;;;;;;;;;;14.40;99.90;;;;;;5081291;28;19928;-86
2022/10/10 01:05:51;;;;;;;;;;;14.40;99.90;;;;;;5077219;28;19920;-87
2022/10/10 01:08:19;;;;;;;;;;;14.30;99.90;;;;;;5078966;28;20205;-87
2022/10/10 01:11:04;;;;;;;;;;;14.30;99.90;;;;;;5076136;28;19912;-85
2022/10/10 01:13:35;;;;;;;;;;;14.40;99.90;;;;;;5074365;28;19927;-84
2022/10/10 01:16:14;;;;;;;;;;;14.30;99.90;;;;;;5078027;28;20015;-85
2022/10/10 01:18:43;;;;;;;;;;;14.20;99.90;;;;;;5073373;28;20351;-85
2022/10/10 01:21:11;;;;;;;;;;;14.20;99.90;;;;;;5074478;28;19919;-85
2022/10/10 01:23:48;;;;;;;;;;;14.20;99.90;;;;;;5072454;28;19920;-85
2022/10/10 01:26:34;;;;;;;;;;;14.00;99.90;;;;;;5079179;28;19920;-87
2022/10/10 01:29:05;;;;;;;;;;;14.10;99.90;;;;;;5071258;28;19920;-86
2022/10/10 01:31:33;;;;;;;;;;;14.00;99.90;;;;;;5076051;28;20450;-86
2022/10/10 01:33:58;;;;;;;;;;;14.00;99.90;;;;;;5085054;28;19927;-87
2022/10/10 01:36:28;;;;;;;;;;;14.00;99.90;;;;;;5082866;28;19916;-87
2022/10/10 01:39:01;;;;;;;;;;;14.00;99.90;;;;;;5079855;28;19919;-87
2022/10/10 01:41:31;;;;;;;;;;;13.80;99.90;;;;;;5074534;28;19920;-88
2022/10/10 01:43:57;;;;;;;;;;;13.80;99.90;;;;;;5082372;28;19959;-88
2022/10/10 01:46:23;;;;;;;;;;;13.70;99.90;;;;;;5076029;28;20473;-88
2022/10/10 01:48:50;;;;;;;;;;;13.80;99.90;;;;;;5073337;28;19927;-87
2022/10/10 01:51:40;;;;;;;;;;;13.80;99.90;;;;;;5075913;28;20283;-88
2022/10/10 01:54:06;;;;;;;;;;;13.80;99.90;;;;;;5075185;28;20788;-86
2022/10/10 01:56:44;;;;;;;;;;;13.60;99.90;;;;;;5076137;28;20315;-85
2022/10/10 01:59:12;;;;;;;;;;;13.50;99.90;;;;;;5069935;28;19917;-84
2022/10/10 02:01:52;;;;;;;;;;;13.60;99.90;;;;;;5073109;28;20402;-84
2022/10/10 02:04:21;;;;;;;;;;;13.50;99.90;;;;;;5076141;28;20336;-85
2022/10/10 02:06:52;;;;;;;;;;;13.50;99.90;;;;;;5078259;28;19931;-86
2022/10/10 02:09:25;;;;;;;;;;;13.50;99.90;;;;;;5084674;28;19916;-86
2022/10/10 02:11:52;;;;;;;;;;;13.40;99.90;;;;;;5067862;28;19916;-86
2022/10/10 02:14:26;;;;;;;;;;;13.40;99.90;;;;;;5076493;28;19916;-86
2022/10/10 02:16:53;;;;;;;;;;;13.40;99.90;;;;;;5067638;28;19955;-87
2022/10/10 02:19:21;;;;;;;;;;;13.40;99.90;;;;;;5070330;28;19916;-88
2022/10/10 02:21:47;;;;;;;;;;;13.40;99.90;;;;;;5074733;28;19963;-88
2022/10/10 02:24:13;;;;;;;;;;;13.40;99.90;;;;;;5075529;28;19917;-88
2022/10/10 02:26:42;;;;;;;;;;;13.30;99.90;;;;;;5071654;28;20354;-88
2022/10/10 02:29:07;;;;;;;;;;;13.30;99.90;;;;;;5078586;28;19965;-87
2022/10/10 02:31:36;;;;;;;;;;;13.20;99.90;;;;;;5076183;28;20011;-86
2022/10/10 02:34:10;;;;;;;;;;;13.30;99.90;;;;;;5069802;28;19992;-86
2022/10/10 02:36:37;;;;;;;;;;;13.40;99.90;;;;;;5074824;28;19951;-88
2022/10/10 02:39:03;;;;;;;;;;;13.40;99.90;;;;;;5076453;28;19962;-88
2022/10/10 02:41:29;;;;;;;;;;;13.40;99.90;;;;;;5073481;28;19947;-88
2022/10/10 02:43:55;;;;;;;;;;;13.30;99.90;;;;;;5084513;28;19985;-87
2022/10/10 02:46:21;;;;;;;;;;;13.20;99.90;;;;;;5084228;28;19920;-87
2022/10/10 02:48:47;;;;;;;;;;;13.10;99.90;;;;;;5084518;28;19920;-87
2022/10/10 02:51:14;;;;;;;;;;;13.20;99.90;;;;;;5080752;28;19916;-88
2022/10/10 02:53:39;;;;;;;;;;;13.10;99.90;;;;;;5079726;28;19917;-86
2022/10/10 02:56:05;;;;;;;;;;;13.20;99.90;;;;;;5082438;28;19920;-86
2022/10/10 02:58:31;;;;;;;;;;;13.20;99.90;;;;;;5083292;28;19920;-85
2022/10/10 03:00:56;;;;;;;;;;;13.20;99.90;;;;;;5089873;28;20820;-86
2022/10/10 03:03:22;;;;;;;;;;;13.20;99.90;;;;;;5078097;28;19934;-87
2022/10/10 03:05:48;;;;;;;;;;;13.30;99.90;;;;;;5079527;28;20300;-87
2022/10/10 03:08:13;;;;;;;;;;;13.30;99.90;;;;;;5078846;28;19912;-85
2022/10/10 03:10:39;;;;;;;;;;;13.20;99.90;;;;;;5078938;28;19917;-87
2022/10/10 03:13:04;;;;;;;;;;;13.20;99.90;;;;;;5074711;28;19922;-89
2022/10/10 03:15:30;;;;;;;;;;;13.30;99.90;;;;;;5080045;28;20007;-87
2022/10/10 03:17:55;;;;;;;;;;;13.40;99.90;;;;;;5078907;28;19920;-89
2022/10/10 03:20:21;;;;;;;;;;;13.50;99.90;;;;;;5077604;28;20031;-89
2022/10/10 03:22:47;;;;;;;;;;;13.60;99.90;;;;;;5079050;28;19920;-89
2022/10/10 03:25:12;;;;;;;;;;;13.60;99.90;;;;;;5076919;28;20439;-86
2022/10/10 03:27:38;;;;;;;;;;;13.60;99.90;;;;;;5079303;28;19963;-86
2022/10/10 03:30:04;;;;;;;;;;;13.70;99.90;;;;;;5079199;28;19916;-87
2022/10/10 03:32:29;;;;;;;;;;;13.70;99.90;;;;;;5084570;28;19954;-87
2022/10/10 03:34:55;;;;;;;;;;;13.60;99.90;;;;;;5086310;28;20581;-86
2022/10/10 03:37:20;;;;;;;;;;;13.50;99.90;;;;;;5074810;28;20027;-86
2022/10/10 03:39:46;;;;;;;;;;;13.50;99.90;;;;;;5082576;28;19916;-85
2022/10/10 03:42:12;;;;;;;;;;;13.30;99.90;;;;;;5082813;28;19981;-85
2022/10/10 03:44:37;;;;;;;;;;;13.20;99.90;;;;;;5077914;28;19923;-85
2022/10/10 03:47:03;;;;;;;;;;;13.30;99.90;;;;;;5073731;28;19921;-86
2022/10/10 03:49:28;;;;;;;;;;;13.40;99.90;;;;;;5086108;28;20497;-85
2022/10/10 03:51:54;;;;;;;;;;;13.40;99.90;;;;;;5080840;28;19923;-86
2022/10/10 03:54:19;;;;;;;;;;;13.30;99.90;;;;;;5082563;28;20339;-86
2022/10/10 03:56:45;;;;;;;;;;;13.30;99.90;;;;;;5080272;28;19923;-86
2022/10/10 03:59:11;;;;;;;;;;;13.20;99.90;;;;;;5077824;28;19916;-85
2022/10/10 04:01:36;;;;;;;;;;;13.30;99.90;;;;;;5083492;28;19964;-86
2022/10/10 04:04:03;;;;;;;;;;;13.20;99.90;;;;;;5075066;28;19981;-87
2022/10/10 04:06:29;;;;;;;;;;;13.20;99.90;;;;;;5081418;28;19938;-86
2022/10/10 04:08:55;;;;;;;;;;;13.20;99.90;;;;;;5077409;28;19916;-88
2022/10/10 04:11:21;;;;;;;;;;;13.20;99.90;;;;;;5082501;28;19925;-86
2022/10/10 04:13:46;;;;;;;;;;;13.10;99.90;;;;;;5075676;28;20350;-86
2022/10/10 04:16:12;;;;;;;;;;;13.10;99.90;;;;;;5085476;28;20366;-85
2022/10/10 04:18:37;;;;;;;;;;;13.10;99.90;;;;;;5082179;28;20509;-84
2022/10/10 04:21:04;;;;;;;;;;;13.10;99.90;;;;;;5078153;28;19916;-85
2022/10/10 04:23:29;;;;;;;;;;;13.10;99.90;;;;;;5076019;28;19950;-86
2022/10/10 04:25:55;;;;;;;;;;;13.00;99.90;;;;;;5074285;28;19971;-86
2022/10/10 04:28:20;;;;;;;;;;;13.00;99.90;;;;;;5075533;28;19969;-85
2022/10/10 04:30:46;;;;;;;;;;;12.90;99.90;;;;;;5074400;28;20504;-87
2022/10/10 04:33:12;;;;;;;;;;;13.00;99.90;;;;;;5073489;28;19998;-85
2022/10/10 04:35:38;;;;;;;;;;;13.00;99.90;;;;;;5077115;28;19916;-87
2022/10/10 04:38:04;;;;;;;;;;;13.10;99.90;;;;;;5078899;28;19922;-85
2022/10/10 04:40:29;;;;;;;;;;;13.10;99.90;;;;;;5081876;28;19966;-88
2022/10/10 04:42:55;;;;;;;;;;;13.10;99.90;;;;;;5077286;28;19974;-87
2022/10/10 04:45:28;;;;;;;;;;;13.10;99.90;;;;;;5082421;28;19927;-88
2022/10/10 04:47:54;;;;;;;;;;;13.10;99.90;;;;;;5072565;28;19924;-91
2022/10/10 04:50:28;;;;;;;;;;;13.10;99.90;;;;;;5075990;28;19916;-93
2022/10/10 04:59:27;;;;;;;;;;;12.90;99.90;;;;;;5070482;28;19916;-89
2022/10/10 05:02:13;;;;;;;;;;;12.80;99.90;;;;;;5070953;28;20319;-86
2022/10/10 05:08:04;;;;;;;;;;;12.80;99.90;;;;;;5039724;28;20006;-87
2022/10/10 05:10:33;;;;;;;;;;;12.80;99.90;;;;;;5030971;28;19916;-87
2022/10/10 05:12:59;;;;;;;;;;;12.80;99.90;;;;;;5080114;28;19916;-89
2022/10/10 05:18:29;;;;;;;;;;;13.20;99.90;;;;;;5074429;28;19922;-85
2022/10/10 05:20:54;;;;;;;;;;;13.20;99.90;;;;;;5072257;28;19924;-84
2022/10/10 05:23:20;;;;;;;;;;;13.10;99.90;;;;;;5084851;28;20341;-84
2022/10/10 05:25:49;;;;;;;;;;;13.10;99.90;;;;;;5082053;28;19959;-85
2022/10/10 05:28:15;;;;;;;;;;;13.00;99.90;;;;;;5070014;28;21073;-87
2022/10/10 05:30:41;;;;;;;;;;;13.00;99.90;;;;;;5069169;28;19960;-88
2022/10/10 05:33:07;;;;;;;;;;;13.00;99.90;;;;;;5076291;28;19956;-85
2022/10/10 05:35:32;;;;;;;;;;;12.90;99.90;;;;;;5082295;28;20007;-85
2022/10/10 05:37:58;;;;;;;;;;;12.80;99.90;;;;;;5073615;28;19977;-85
2022/10/10 05:40:24;;;;;;;;;;;12.70;99.90;;;;;;5082077;28;19916;-82
2022/10/10 05:42:49;;;;;;;;;;;12.70;99.90;;;;;;5081841;28;19916;-84
2022/10/10 05:45:15;;;;;;;;;;;12.70;99.90;;;;;;5070819;28;20369;-84
2022/10/10 05:47:40;;;;;;;;;;;12.80;99.90;;;;;;5067106;28;19938;-87
2022/10/10 05:50:08;;;;;;;;;;;12.90;99.90;;;;;;5082237;28;20000;-87
2022/10/10 05:52:35;;;;;;;;;;;13.00;99.90;;;;;;5077680;28;19959;-85
2022/10/10 05:55:00;;;;;;;;;;;13.10;99.90;;;;;;5067823;28;19995;-84
2022/10/10 05:57:26;;;;;;;;;;;13.20;99.90;;;;;;5078013;28;20018;-83
2022/10/10 05:59:51;;;;;;;;;;;13.30;99.90;;;;;;5071394;28;19981;-83
2022/10/10 06:02:17;;;;;;;;;;;13.50;99.90;;;;;;5083447;28;19912;-84
2022/10/10 06:04:42;;;;;;;;;;;13.50;99.90;;;;;;5077106;28;19916;-84
2022/10/10 06:07:08;;;;;;;;;;;13.50;99.90;;;;;;5078065;28;19916;-84
2022/10/10 06:09:34;;;;;;;;;;;13.50;99.90;;;;;;5069966;28;20007;-85
2022/10/10 06:11:59;;;;;;;;;;;13.40;99.90;;;;;;5081647;28;19912;-87
2022/10/10 06:14:25;;;;;;;;;;;13.40;99.90;;;;;;5072457;28;19923;-86
2022/10/10 06:16:50;;;;;;;;;;;13.70;99.90;;;;;;5085584;28;19912;-87
2022/10/10 06:19:16;;;;;;;;;;;13.90;99.90;;;;;;5078115;28;19917;-86
2022/10/10 06:21:41;;;;;;;;;;;13.80;99.90;;;;;;5075874;28;19920;-86
2022/10/10 06:24:09;;;;;;;;;;;13.90;99.90;;;;;;5090147;28;19912;-81
2022/10/10 06:26:35;;;;;;;;;;;14.20;99.90;;;;;;5079627;28;19951;-81
2022/10/10 06:29:00;;;;;;;;;;;14.40;99.90;;;;;;5086083;28;20352;-82
2022/10/10 06:31:26;;;;;;;;;;;14.70;99.90;;;;;;5081702;28;19916;-83
2022/10/10 06:33:52;;;;;;;;;;;14.80;99.90;;;;;;5090298;28;19916;-82
2022/10/10 06:36:17;;;;;;;;;;;15.00;99.90;;;;;;5082757;28;19916;-83
2022/10/10 06:38:44;;;;;;;;;;;15.00;99.90;;;;;;5089166;28;19919;-83
2022/10/10 06:41:10;;;;;;;;;;;14.90;99.90;;;;;;5078809;28;19924;-83
2022/10/10 06:43:36;;;;;;;;;;;15.50;99.90;;;;;;5074654;28;20320;-84
2022/10/10 06:46:01;;;;;;;;;;;15.90;99.90;;;;;;5084213;28;19920;-83
2022/10/10 06:48:28;;;;;;;;;;;16.20;99.90;;;;;;5075861;28;19912;-82
2022/10/10 06:50:58;;;;;;;;;;;16.10;99.90;;;;;;5075219;28;19917;-81
2022/10/10 06:53:24;;;;;;;;;;;15.90;99.90;;;;;;5076222;28;20003;-81
2022/10/10 06:55:51;;;;;;;;;;;15.50;99.90;;;;;;5077623;28;19992;-81
2022/10/10 06:58:16;;;;;;;;;;;15.10;99.90;;;;;;5087013;28;19923;-81
2022/10/10 07:00:47;;;;;;;;;;;15.10;99.90;;;;;;5076211;28;19912;-82
2022/10/10 07:03:12;;;;;;;;;;;15.40;99.90;;;;;;5079729;28;20011;-81
2022/10/10 07:05:39;;;;;;;;;;;15.20;99.90;;;;;;5082507;28;20403;-82
2022/10/10 07:08:04;;;;;;;;;;;14.70;99.90;;;;;;5074181;28;20002;-82
2022/10/10 07:10:31;;;;;;;;;;;14.40;99.90;;;;;;5076461;28;19957;-81
2022/10/10 07:12:56;;;;;;;;;;;14.70;99.90;;;;;;5078145;28;20351;-81
2022/10/10 07:15:22;;;;;;;;;;;15.20;99.90;;;;;;5073217;28;19912;-81
2022/10/10 07:17:54;;;;;;;;;;;15.40;99.90;;;;;;5079771;28;19926;-82
2022/10/10 07:20:20;;;;;;;;;;;15.80;99.90;;;;;;5079333;28;19919;-82
2022/10/10 07:22:45;;;;;;;;;;;16.60;99.90;;;;;;5075858;28;20354;-81
2022/10/10 07:25:12;;;;;;;;;;;17.40;99.90;;;;;;5082888;28;19923;-81
2022/10/10 07:27:38;;;;;;;;;;;17.70;99.90;;;;;;5076776;28;19995;-81
2022/10/10 07:30:04;;;;;;;;;;;18.00;99.90;;;;;;5084771;28;20003;-81
2022/10/10 07:32:29;;;;;;;;;;;18.40;99.90;;;;;;5077581;28;19934;-81
2022/10/10 07:34:57;;;;;;;;;;;17.20;99.90;;;;;;5080934;28;19999;-81
2022/10/10 07:37:22;;;;;;;;;;;16.70;99.90;;;;;;5084783;28;20346;-82
2022/10/10 07:39:48;;;;;;;;;;;16.60;99.90;;;;;;5081719;28;19916;-81
2022/10/10 07:42:13;;;;;;;;;;;16.80;99.90;;;;;;5076885;28;20414;-81
2022/10/10 07:44:39;;;;;;;;;;;17.60;99.90;;;;;;5090208;28;19978;-80
2022/10/10 07:47:05;;;;;;;;;;;18.30;99.90;;;;;;5076510;28;19916;-82
2022/10/10 07:49:30;;;;;;;;;;;19.30;99.90;;;;;;5089966;28;19912;-82
2022/10/10 07:51:56;;;;;;;;;;;19.90;99.90;;;;;;5083064;28;19917;-82
2022/10/10 07:54:22;;;;;;;;;;;20.30;99.90;;;;;;5079680;28;20776;-81
2022/10/10 07:56:47;;;;;;;;;;;19.40;99.90;;;;;;5082276;28;20054;-81
2022/10/10 07:59:13;;;;;;;;;;;20.00;99.90;;;;;;5077619;28;20406;-81
2022/10/10 08:01:38;;;;;;;;;;;20.90;99.40;;;;;;5074501;28;19916;-81
2022/10/10 08:04:04;;;;;;;;;;;19.30;99.90;;;;;;5084931;28;20466;-81
2022/10/10 08:06:29;;;;;;;;;;;18.00;99.90;;;;;;5075764;28;20023;-81
2022/10/10 08:08:55;;;;;;;;;;;17.40;99.90;;;;;;5069596;28;19912;-82
2022/10/10 08:11:21;;;;;;;;;;;17.40;99.90;;;;;;5077705;28;19912;-82
2022/10/10 08:13:47;;;;;;;;;;;17.70;99.90;;;;;;5073377;28;20793;-82
2022/10/10 08:16:12;;;;;;;;;;;19.40;99.90;;;;;;5085652;28;20295;-81
2022/10/10 08:18:38;;;;;;;;;;;20.20;99.90;;;;;;5082551;28;19919;-82
2022/10/10 08:21:05;;;;;;;;;;;19.70;99.90;;;;;;5088763;28;19912;-81
2022/10/10 08:23:31;;;;;;;;;;;20.60;99.90;;;;;;5077248;28;19912;-82
2022/10/10 08:25:58;;;;;;;;;;;21.40;99.90;;;;;;5067510;28;20005;-82
2022/10/10 08:28:25;;;;;;;;;;;21.70;99.90;;;;;;5085444;28;20014;-81
2022/10/10 08:30:50;;;;;;;;;;;21.70;99.20;;;;;;5074219;28;19912;-81
2022/10/10 08:33:16;;;;;;;;;;;21.40;99.80;;;;;;5067920;28;20390;-81
2022/10/10 08:35:41;;;;;;;;;;;21.60;99.30;;;;;;5082117;28;20011;-82
2022/10/10 08:38:07;;;;;;;;;;;21.90;98.10;;;;;;5081416;28;19917;-82
2022/10/10 08:40:39;;;;;;;;;;;22.20;97.10;;;;;;5072285;28;19919;-83
2022/10/10 08:43:06;;;;;;;;;;;22.10;97.00;;;;;;5084562;28;19912;-82
2022/10/10 08:45:32;;;;;;;;;;;22.50;96.50;;;;;;5071704;28;19912;-82
2022/10/10 08:48:00;;;;;;;;;;;22.60;95.20;;;;;;5069153;28;19913;-81
2022/10/10 08:50:33;;;;;;;;;;;22.90;94.50;;;;;;5084074;28;19912;-82
2022/10/10 08:53:07;;;;;;;;;;;23.60;95.90;;;;;;5081089;28;19912;-82
2022/10/10 08:55:33;;;;;;;;;;;23.90;95.10;;;;;;5075792;28;19912;-82
2022/10/10 08:58:17;;;;;;;;;;;23.70;94.20;;;;;;5073556;28;19918;-82
2022/10/10 09:00:46;;;;;;;;;;;23.10;93.60;;;;;;5071209;28;20009;-82
2022/10/10 09:03:24;;;;;;;;;;;22.90;94.50;;;;;;5077297;28;19924;-82
2022/10/10 09:06:24;;;;;;;;;;;23.20;93.60;;;;;;5076646;28;20525;-81
2022/10/10 09:08:59;;;;;;;;;;;22.40;94.10;;;;;;5037940;28;19913;-81
2022/10/10 09:11:35;;;;;;;;;;;22.30;93.40;;;;;;5071856;28;19912;-81
2022/10/10 09:14:07;;;;;;;;;;;22.40;94.10;;;;;;5083296;28;19942;-81
2022/10/10 09:16:32;;;;;;;;;;;22.40;93.60;;;;;;5073233;28;19912;-82
2022/10/10 09:19:07;;;;;;;;;;;22.60;92.90;;;;;;5073740;28;20019;-82
2022/10/10 09:21:38;;;;;;;;;;;22.80;92.70;;;;;;5083684;28;19952;-82
2022/10/10 09:24:15;;;;;;;;;;;23.90;91.60;;;;;;5072879;28;19913;-81
2022/10/10 09:26:46;;;;;;;;;;;24.00;89.30;;;;;;5066508;28;20481;-81
2022/10/10 09:29:28;;;;;;;;;;;23.20;90.30;;;;;;5066640;28;19958;-82
2022/10/10 09:32:03;;;;;;;;;;;23.00;90.00;;;;;;5086162;28;19934;-81
2022/10/10 09:34:32;;;;;;;;;;;22.30;90.60;;;;;;5080471;28;20395;-82
2022/10/10 09:37:01;;;;;;;;;;;22.20;91.40;;;;;;5077772;28;19913;-81
2022/10/10 09:39:34;;;;;;;;;;;22.30;90.80;;;;;;5079391;28;19920;-82
2022/10/10 09:42:01;;;;;;;;;;;22.50;91.00;;;;;;5076620;28;20334;-82
2022/10/10 09:44:27;;;;;;;;;;;23.20;89.30;;;;;;5079126;28;20001;-82
2022/10/10 09:46:54;;;;;;;;;;;23.10;90.00;;;;;;5080126;28;19916;-82
2022/10/10 09:49:20;;;;;;;;;;;23.60;90.00;;;;;;5081342;28;19912;-82
2022/10/10 09:51:47;;;;;;;;;;;23.20;90.10;;;;;;5074560;28;19931;-82
2022/10/10 09:54:13;;;;;;;;;;;23.20;89.80;;;;;;5080016;28;19920;-81
2022/10/10 09:56:41;;;;;;;;;;;24.00;90.20;;;;;;5069516;28;19978;-82
2022/10/10 09:59:27;;;;;;;;;;;23.80;88.30;;;;;;5069998;28;19923;-81
2022/10/10 10:02:02;;;;;;;;;;;23.80;89.70;;;;;;5079595;28;19969;-82
2022/10/10 10:04:32;;;;;;;;;;;24.10;88.80;;;;;;5069989;28;19932;-82
2022/10/10 10:07:06;;;;;;;;;;;24.10;88.70;;;;;;5068037;28;19927;-82
2022/10/10 10:09:32;;;;;;;;;;;24.30;88.20;;;;;;5076541;28;19912;-82
2022/10/10 10:11:57;;;;;;;;;;;24.00;85.80;;;;;;5075563;28;19916;-82
2022/10/10 10:14:34;;;;;;;;;;;23.60;87.80;;;;;;5074745;28;19912;-82
2022/10/10 10:17:09;;;;;;;;;;;23.80;87.20;;;;;;5069132;28;20015;-82
2022/10/10 10:19:35;;;;;;;;;;;24.40;86.30;;;;;;5085850;28;19912;-81
2022/10/10 10:22:01;;;;;;;;;;;24.60;88.70;;;;;;5085628;28;19918;-82
2022/10/10 10:24:28;;;;;;;;;;;24.40;85.30;;;;;;5067470;28;19929;-82
2022/10/10 10:26:54;;;;;;;;;;;24.10;84.00;;;;;;5076869;28;19955;-82
2022/10/10 10:29:23;;;;;;;;;;;24.10;84.90;;;;;;5068774;28;19952;-81
2022/10/10 10:32:07;;;;;;;;;;;24.30;84.20;;;;;;5073059;28;19912;-82
2022/10/10 10:34:47;;;;;;;;;;;23.90;84.60;;;;;;5075953;28;19923;-83
2022/10/10 10:37:22;;;;;;;;;;;23.70;83.40;;;;;;5083051;28;19974;-82
2022/10/10 10:39:54;;;;;;;;;;;23.70;85.70;;;;;;5077621;28;19955;-82
2022/10/10 10:42:26;;;;;;;;;;;23.10;83.50;;;;;;5077112;28;20533;-82
2022/10/10 10:45:03;;;;;;;;;;;23.20;84.70;;;;;;5079772;28;19919;-82
2022/10/10 10:47:38;;;;;;;;;;;23.20;83.50;;;;;;5072671;28;20280;-82
2022/10/10 10:50:14;;;;;;;;;;;23.70;83.70;;;;;;5074018;28;20503;-82
2022/10/10 10:52:46;;;;;;;;;;;23.70;84.70;;;;;;5073272;28;19912;-82
2022/10/10 10:55:24;;;;;;;;;;;23.80;81.90;;;;;;5078115;28;19912;-82
2022/10/10 10:58:05;;;;;;;;;;;24.00;84.20;;;;;;5067597;28;20708;-82
2022/10/10 11:00:36;;;;;;;;;;;24.00;83.80;;;;;;5072925;28;19918;-82
2022/10/10 11:03:02;;;;;;;;;;;23.60;84.40;;;;;;5074388;28;20404;-82
2022/10/10 11:05:34;;;;;;;;;;;23.40;85.60;;;;;;5078154;28;19981;-82
2022/10/10 11:08:19;;;;;;;;;;;23.30;87.10;;;;;;5077140;28;20452;-81
2022/10/10 11:10:50;;;;;;;;;;;23.30;86.50;;;;;;5074305;28;19997;-82
2022/10/10 11:13:34;;;;;;;;;;;23.40;86.00;;;;;;5076161;28;19919;-82
2022/10/10 11:16:12;;;;;;;;;;;23.50;84.40;;;;;;5076966;28;20303;-82
2022/10/10 11:18:44;;;;;;;;;;;23.40;83.50;;;;;;5083281;28;20544;-82
2022/10/10 11:21:13;;;;;;;;;;;23.60;84.40;;;;;;5085625;28;19912;-82
2022/10/10 11:23:41;;;;;;;;;;;23.60;83.50;;;;;;5078846;28;19909;-82
2022/10/10 11:26:11;;;;;;;;;;;23.60;83.50;;;;;;5082217;28;20780;-82
2022/10/10 11:28:38;;;;;;;;;;;23.70;84.60;;;;;;5082749;28;19916;-82
2022/10/10 11:31:24;;;;;;;;;;;23.90;84.30;;;;;;5077014;28;19913;-82
2022/10/10 11:33:52;;;;;;;;;;;24.00;82.40;;;;;;5079295;28;19912;-82
2022/10/10 11:36:19;;;;;;;;;;;23.50;80.20;;;;;;5070355;28;19912;-82
2022/10/10 11:38:48;;;;;;;;;;;23.40;81.60;;;;;;5078426;28;20368;-81
2022/10/10 11:41:18;;;;;;;;;;;23.30;83.00;;;;;;5079370;28;19912;-82
2022/10/10 11:44:02;;;;;;;;;;;23.10;81.30;;;;;;5085649;28;20521;-82
2022/10/10 11:46:32;;;;;;;;;;;23.10;82.40;;;;;;5070414;28;19916;-82
2022/10/10 11:49:04;;;;;;;;;;;23.20;83.20;;;;;;5078872;28;19912;-82
2022/10/10 11:51:42;;;;;;;;;;;23.10;83.50;;;;;;5075971;28;20447;-81
2022/10/10 11:54:28;;;;;;;;;;;22.90;83.90;;;;;;5069966;28;19916;-82
2022/10/10 11:56:58;;;;;;;;;;;23.00;84.80;;;;;;5069442;28;19919;-82
2022/10/10 11:59:29;;;;;;;;;;;23.20;87.10;;;;;;5077177;28;19947;-84
2022/10/10 12:01:57;;;;;;;;;;;23.20;84.60;;;;;;5074660;28;19969;-84
2022/10/10 12:04:23;;;;;;;;;;;23.20;85.90;;;;;;5082854;28;19957;-84
2022/10/10 12:06:57;;;;;;;;;;;23.30;85.80;;;;;;5069421;28;19916;-84
2022/10/10 12:09:26;;;;;;;;;;;23.60;83.40;;;;;;5079594;28;19920;-84
2022/10/10 12:11:55;;;;;;;;;;;23.80;82.30;;;;;;5073179;28;19912;-84
2022/10/10 12:14:21;;;;;;;;;;;23.90;83.40;;;;;;5082950;28;20633;-84
2022/10/10 12:16:47;;;;;;;;;;;23.70;83.70;;;;;;5081569;28;19916;-84
2022/10/10 12:19:20;;;;;;;;;;;23.60;83.90;;;;;;5076310;28;19919;-84
2022/10/10 12:21:54;;;;;;;;;;;23.70;83.70;;;;;;5082100;28;19916;-84
2022/10/10 12:24:20;;;;;;;;;;;23.70;83.90;;;;;;5078090;28;19912;-84
2022/10/10 12:26:52;;;;;;;;;;;23.40;84.80;;;;;;5077914;28;19920;-84
2022/10/10 12:29:36;;;;;;;;;;;23.30;84.50;;;;;;5077730;28;20686;-84
2022/10/10 12:32:14;;;;;;;;;;;23.20;85.80;;;;;;5082947;28;19912;-85
2022/10/10 12:34:39;;;;;;;;;;;23.20;84.70;;;;;;5077845;28;19912;-84
2022/10/10 12:37:09;;;;;;;;;;;23.20;84.20;;;;;;5076640;28;19999;-84
2022/10/10 12:39:36;;;;;;;;;;;23.30;84.90;;;;;;5078231;28;19919;-84
2022/10/10 12:42:01;;;;;;;;;;;23.40;85.70;;;;;;5074616;28;19938;-84
2022/10/10 12:44:33;;;;;;;;;;;23.20;86.70;;;;;;5075301;28;20485;-84
2022/10/10 12:47:13;;;;;;;;;;;23.40;87.40;;;;;;5075290;28;20576;-84
2022/10/10 12:49:54;;;;;;;;;;;23.40;86.10;;;;;;5075835;28;20011;-84
2022/10/10 12:52:45;;;;;;;;;;;23.60;85.50;;;;;;5086241;28;19912;-84
2022/10/10 12:55:31;;;;;;;;;;;23.60;88.60;;;;;;5073559;28;19948;-84
2022/10/10 12:58:01;;;;;;;;;;;23.20;87.30;;;;;;5079344;28;19950;-84
2022/10/10 13:00:35;;;;;;;;;;;23.10;84.80;;;;;;5084458;28;19939;-84
2022/10/10 13:03:03;;;;;;;;;;;23.10;85.70;;;;;;5078675;28;20422;-84
2022/10/10 13:05:33;;;;;;;;;;;23.10;86.20;;;;;;5084360;28;20011;-84
2022/10/10 13:08:01;;;;;;;;;;;23.00;82.50;;;;;;5073660;28;19916;-84
2022/10/10 13:10:28;;;;;;;;;;;23.00;82.90;;;;;;5082623;28;20381;-85
2022/10/10 13:12:57;;;;;;;;;;;23.10;83.70;;;;;;5080527;28;19947;-84
2022/10/10 13:15:23;;;;;;;;;;;23.10;84.20;;;;;;5069159;28;19916;-84
2022/10/10 13:17:48;;;;;;;;;;;23.10;84.80;;;;;;5072664;28;19921;-84
2022/10/10 13:20:43;;;;;;;;;;;23.20;85.50;;;;;;5075109;28;20479;-84
2022/10/10 13:23:12;;;;;;;;;;;23.40;85.60;;;;;;5071647;28;19955;-84
2022/10/10 13:25:39;;;;;;;;;;;23.20;81.40;;;;;;5073800;28;19912;-84
2022/10/10 13:28:14;;;;;;;;;;;23.20;81.50;;;;;;5077576;28;19973;-84
2022/10/10 13:30:39;;;;;;;;;;;23.00;78.60;;;;;;5085102;28;19919;-84
2022/10/10 13:33:11;;;;;;;;;;;23.00;79.40;;;;;;5077083;28;19919;-84
2022/10/10 13:35:37;;;;;;;;;;;23.10;83.70;;;;;;5081334;28;20601;-84
2022/10/10 13:38:04;;;;;;;;;;;23.20;86.40;;;;;;5077024;28;20099;-84
2022/10/10 13:40:30;;;;;;;;;;;23.00;87.80;;;;;;5083056;28;19912;-83
2022/10/10 13:42:57;;;;;;;;;;;22.90;87.20;;;;;;5071992;28;20387;-84
2022/10/10 13:45:22;;;;;;;;;;;22.80;87.40;;;;;;5070913;28;19916;-84
2022/10/10 13:47:50;;;;;;;;;;;22.80;88.80;;;;;;5079180;28;20335;-84
2022/10/10 13:50:18;;;;;;;;;;;22.60;90.10;;;;;;5084845;28;19912;-84
2022/10/10 13:52:43;;;;;;;;;;;22.60;88.70;;;;;;5069220;28;19935;-83
2022/10/10 13:55:14;;;;;;;;;;;22.70;89.60;;;;;;5079279;28;20442;-83
2022/10/10 13:57:40;;;;;;;;;;;22.70;87.50;;;;;;5078210;28;19912;-84
2022/10/10 14:00:13;;;;;;;;;;;22.90;88.70;;;;;;5082011;28;20371;-83
2022/10/10 14:02:40;;;;;;;;;;;22.90;87.40;;;;;;5075932;28;19970;-83
2022/10/10 14:05:06;;;;;;;;;;;23.00;88.50;;;;;;5077970;28;19920;-84
2022/10/10 14:07:32;;;;;;;;;;;22.90;86.50;;;;;;5080255;28;19923;-83
2022/10/10 14:10:01;;;;;;;;;;;22.70;84.20;;;;;;5087507;28;19970;-84
2022/10/10 14:12:26;;;;;;;;;;;22.70;85.60;;;;;;5088601;28;19934;-84
2022/10/10 14:14:53;;;;;;;;;;;22.70;87.90;;;;;;5073167;28;20330;-84
2022/10/10 14:17:19;;;;;;;;;;;22.60;87.40;;;;;;5081392;28;20444;-83
2022/10/10 14:19:45;;;;;;;;;;;22.60;89.00;;;;;;5087024;28;20015;-84
2022/10/10 14:22:11;;;;;;;;;;;22.50;88.10;;;;;;5081897;28;19912;-82
2022/10/10 14:24:36;;;;;;;;;;;22.40;86.50;;;;;;5085123;28;19924;-84
2022/10/10 14:27:14;;;;;;;;;;;22.30;87.50;;;;;;5066367;28;20341;-83
2022/10/10 14:29:40;;;;;;;;;;;22.20;87.40;;;;;;5072233;28;19962;-86
2022/10/10 14:32:05;;;;;;;;;;;22.20;88.90;;;;;;5068394;28;19912;-85
2022/10/10 14:34:31;;;;;;;;;;;22.30;89.00;;;;;;5077588;28;19934;-84
2022/10/10 14:36:56;;;;;;;;;;;22.20;89.00;;;;;;5074299;28;19912;-82
2022/10/10 14:39:22;;;;;;;;;;;22.00;87.90;;;;;;5074327;28;19911;-82